Disclaimer

Please do not use the information listed here in-flight or in-navigation, as they are not provided to us by the airports but are provided by volunteers, so they might be outdated.

Search


Regions


Airport information page

No radio frequency information is available.

Airport informations:
Latitude: 47° 49' 12.00" N
Longitude: 083° 20' 48.00" W
Elevation: 1470 feet - 448 meters
Operating hours: N/A
Operating agency: Civil government, landing fees and diplomatic clearance may be required
Timezone: UTC-5(-4DT) - Second Sunday in March at 0200 to first Sunday in November at 0200 local time (Exception Arizona and that portion of Indiana in the Eastern Time Zone)
Fuel: Jet A1, without icing nhibitor.

100/130 MIL Spec, low lead, aviation gasoline (BLUE)

Runway information:
05/23 - 3000 x 75 feet< - >914 x 23 meters
10/28 - 5000 x 100 feet< - >1524 x 30 meters

Recent METARs:
CYLD 181700Z 21013G20KT 15SM -SN DRSN OVC040 M06/M10 A2992 RMK SC8 SLP172
CYLD 181800Z 20014G22KT 15SM -SN DRSN BKN048 M05/M08 A2990 RMK SC6 SLP162
CYLD 181800Z 20014G22KT 15SM -SN DRSN BKN048 M05/M08 A2990 RMK SC6 SLP162

Airport on the map: